Rolla Downtown Airport

About
Name: Rolla Downtown Airport
Identifier:  RLA/KVIH
Serves:  Rolla, Missouri
Owner:  Maxine Dickman Fosmark
Public/Private:  Public use
Local Time:  20. Aug 09:41 CDT
Description: Rolla Downtown Airport is a privately owned, public use airport located three nautical miles southwest of the central business district of Rolla, a city in Phelps County, Missouri, United States.
Source: Wikipedia
Location
Runways
Identifier Length (m/ft) Surface
9/27 3,028/3,028 Asphalt
Flights per Day
0 flights
Distance: 140km (87mi)
Punctuality
66% (0 flights per day delayed)
Delay Average: 34 minutes
Current Weather
 28 C (Humidity: 74%)
  9kt (16km/h / 10mph) from 210°
  16km (10 mi.)
 
 METAR KVIH 201353Z AUTO 21009KT 10SM CLR 28/23 A3007 RMK AO2 SLP168 T02830228

Current Flights

Departures
Number Departure To Airline
Arrivals
Number Arrival From Airline

Current Delays

Departures
N/A
Arrivals
N/A

Destinations

Top Destinations
Airport Flights
per week
Seats
per week
  Cape Girardeau (CGI) 0 - 0 0
  Columbia (COU) 0 - 0 0
  Moline (MLI) 0 - 0 0
  Quincy (UIN) 0 - 0 0
  Omaha (OMA) 0 - 0 0
  Springfield (SGF) 0 - 0 0
  Madison (MSN) 0 - 0 0

Airlines & Planes

Top Airlines
Airline Flights
per Day
Seats
per Day
  Flybe Nordic 0 -
Nordwind Airlines 0 -
  Nolinor Aviation 0 -
  National Airlines 0 -
  Federal Express (FedEx) 0 -
Top Plane Types
Model Flights Seats
Cessna C560 0.1/day - 0
Cessna C182 0.1/day - 0
Piper PA28-181 0.1/day - 0
Cessna C208 0.0/day - 0